createdAt,value
2017-12-03T00:01:38.966Z,-0.60
2017-12-03T00:04:07.330Z,-0.60
2017-12-03T00:06:34.804Z,-0.60
2017-12-03T00:09:02.303Z,-0.60
2017-12-03T00:11:29.794Z,-0.60
2017-12-03T00:13:57.300Z,-0.60
2017-12-03T00:16:24.790Z,-0.60
2017-12-03T00:18:52.270Z,-0.60
2017-12-03T00:21:19.771Z,-0.60
2017-12-03T00:23:47.258Z,-0.70
2017-12-03T00:26:14.748Z,-0.90
2017-12-03T00:28:42.251Z,-0.90
2017-12-03T00:31:09.753Z,-0.90
2017-12-03T00:33:37.270Z,-1.00
2017-12-03T00:36:04.779Z,-0.80
2017-12-03T00:38:32.378Z,-0.80
2017-12-03T00:40:59.865Z,-0.70
2017-12-03T00:43:27.368Z,-0.70
2017-12-03T00:45:54.849Z,-0.80
2017-12-03T00:48:22.355Z,-1.00
2017-12-03T00:50:49.829Z,-1.00
2017-12-03T00:53:17.328Z,-1.00
2017-12-03T00:55:44.883Z,-1.00
2017-12-03T00:58:12.402Z,-0.90
2017-12-03T01:00:39.892Z,-0.70
2017-12-03T01:03:08.141Z,-0.80
2017-12-03T01:05:35.630Z,-0.90
2017-12-03T01:08:03.090Z,-0.80
2017-12-03T01:10:30.608Z,-0.70
2017-12-03T01:12:58.111Z,-0.60
2017-12-03T01:15:25.569Z,-0.70
2017-12-03T01:17:53.069Z,-0.80
2017-12-03T01:20:20.542Z,-0.70
2017-12-03T01:22:48.044Z,-0.80
2017-12-03T01:25:15.517Z,-0.70
2017-12-03T01:27:42.998Z,-0.80
2017-12-03T01:30:10.536Z,-1.00
2017-12-03T01:32:38.013Z,-1.00
2017-12-03T01:35:05.516Z,-1.00
2017-12-03T01:37:33.000Z,-1.00
2017-12-03T01:40:00.500Z,-1.00
2017-12-03T01:42:27.999Z,-1.00
2017-12-03T01:44:55.464Z,-1.10
2017-12-03T01:47:22.947Z,-1.10
2017-12-03T01:49:50.422Z,-1.10
2017-12-03T01:52:17.922Z,-1.00
2017-12-03T01:54:45.441Z,-1.10
2017-12-03T01:57:12.944Z,-1.00
2017-12-03T01:59:40.447Z,-1.00
2017-12-03T02:02:07.920Z,-1.10
2017-12-03T02:04:35.411Z,-0.90
2017-12-03T02:07:02.892Z,-0.90
2017-12-03T02:09:30.356Z,-0.90
2017-12-03T02:11:57.852Z,-0.90
2017-12-03T02:14:25.326Z,-0.90
2017-12-03T02:16:53.588Z,-0.90
2017-12-03T02:19:21.504Z,-0.90
2017-12-03T02:21:49.212Z,-1.00
2017-12-03T02:24:16.702Z,-0.90
2017-12-03T02:26:44.170Z,-0.90
2017-12-03T02:29:11.663Z,-0.90
2017-12-03T02:31:39.144Z,-0.90
2017-12-03T02:34:06.612Z,-1.00
2017-12-03T02:36:34.099Z,-1.00
2017-12-03T02:39:01.576Z,-0.90
2017-12-03T02:41:29.076Z,-0.90
2017-12-03T02:43:56.563Z,-1.00
2017-12-03T02:46:24.082Z,-1.10
2017-12-03T02:48:51.569Z,-1.30
2017-12-03T02:51:19.068Z,-1.20
2017-12-03T02:53:46.566Z,-1.20
2017-12-03T02:56:14.074Z,-1.10
2017-12-03T02:58:41.846Z,-1.20
2017-12-03T03:01:09.362Z,-1.10
2017-12-03T03:03:37.905Z,-1.20
2017-12-03T03:06:05.415Z,-1.20
2017-12-03T03:08:32.908Z,-1.10
2017-12-03T03:11:00.670Z,-1.10
2017-12-03T03:13:28.151Z,-1.20
2017-12-03T03:15:55.657Z,-1.20
2017-12-03T03:18:23.912Z,-1.30
2017-12-03T03:20:51.440Z,-1.20
2017-12-03T03:23:18.927Z,-1.30
2017-12-03T03:25:47.202Z,-1.20
2017-12-03T03:28:14.681Z,-1.30
2017-12-03T03:30:42.150Z,-1.30
2017-12-03T03:33:09.928Z,-1.30
2017-12-03T03:35:37.409Z,-1.20
2017-12-03T03:38:04.902Z,-1.30
2017-12-03T03:40:32.398Z,-1.30
2017-12-03T03:42:59.892Z,-1.40
2017-12-03T03:45:27.398Z,-1.40
2017-12-03T03:47:54.895Z,-1.30
2017-12-03T03:50:22.366Z,-1.30
2017-12-03T03:52:49.878Z,-1.40
2017-12-03T03:55:17.525Z,-1.40
2017-12-03T03:57:45.022Z,-1.50
2017-12-03T04:00:12.496Z,-1.40
2017-12-03T04:02:40.009Z,-1.30
2017-12-03T04:05:07.521Z,-1.40
2017-12-03T04:07:35.213Z,-1.40
2017-12-03T04:10:02.733Z,-1.40
2017-12-03T04:12:30.200Z,-1.40
2017-12-03T04:14:57.689Z,-1.30
2017-12-03T04:17:25.160Z,-1.40
2017-12-03T04:19:52.682Z,-1.40
2017-12-03T04:22:20.180Z,-1.40
2017-12-03T04:24:47.683Z,-1.30
2017-12-03T04:27:15.160Z,-1.50
2017-12-03T04:29:43.662Z,-1.50
2017-12-03T04:32:11.139Z,-1.50
2017-12-03T04:34:38.625Z,-1.60
2017-12-03T04:37:06.116Z,-1.50
2017-12-03T04:39:34.374Z,-1.50
2017-12-03T04:42:01.864Z,-1.50
2017-12-03T04:44:29.345Z,-1.40
2017-12-03T04:46:56.847Z,-1.40
2017-12-03T04:49:24.348Z,-1.50
2017-12-03T04:51:51.838Z,-1.50
2017-12-03T04:54:19.328Z,-1.50
2017-12-03T04:56:47.554Z,-1.60
2017-12-03T04:59:15.060Z,-1.50
2017-12-03T05:01:42.605Z,-1.50
2017-12-03T05:04:10.108Z,-1.40
2017-12-03T05:06:37.590Z,-1.30
2017-12-03T05:09:05.092Z,-1.50
2017-12-03T05:11:32.606Z,-1.50
2017-12-03T05:14:00.100Z,-1.50
2017-12-03T05:16:27.574Z,-1.60
2017-12-03T05:18:55.836Z,-1.50
2017-12-03T05:21:23.314Z,-1.50
2017-12-03T05:23:51.591Z,-1.60
2017-12-03T05:26:19.833Z,-1.60
2017-12-03T05:28:47.388Z,-1.60
2017-12-03T05:31:14.885Z,-1.50
2017-12-03T05:33:42.368Z,-1.50
2017-12-03T05:36:09.914Z,-1.60
2017-12-03T05:38:37.364Z,-1.50
2017-12-03T05:41:05.843Z,-1.60
2017-12-03T05:43:33.340Z,-1.70
2017-12-03T05:46:00.830Z,-1.60
2017-12-03T05:48:28.330Z,-1.60
2017-12-03T05:50:55.849Z,-1.60
2017-12-03T05:53:23.338Z,-1.60
2017-12-03T05:55:50.839Z,-1.60
2017-12-03T05:58:18.348Z,-1.60
2017-12-03T06:00:45.860Z,-1.70
2017-12-03T06:03:13.344Z,-1.60
2017-12-03T06:05:41.663Z,-1.60
2017-12-03T06:08:09.194Z,-1.60
2017-12-03T06:10:37.492Z,-1.60
2017-12-03T06:13:04.965Z,-1.60
2017-12-03T06:15:32.488Z,-1.60
2017-12-03T06:17:59.991Z,-1.60
2017-12-03T06:20:27.491Z,-1.60
2017-12-03T06:22:54.984Z,-1.60
2017-12-03T06:25:22.762Z,-1.70
2017-12-03T06:27:50.339Z,-1.80
2017-12-03T06:30:17.871Z,-1.60
2017-12-03T06:32:45.377Z,-1.70
2017-12-03T06:35:12.880Z,-1.70
2017-12-03T06:37:40.380Z,-1.80
2017-12-03T06:40:07.870Z,-1.80
2017-12-03T06:42:35.677Z,-1.90
2017-12-03T06:45:03.183Z,-1.80
2017-12-03T06:47:30.711Z,-1.80
2017-12-03T06:49:58.222Z,-1.80
2017-12-03T06:52:25.748Z,-1.80
2017-12-03T06:54:53.230Z,-1.80
2017-12-03T06:57:20.925Z,-1.90
2017-12-03T06:59:48.476Z,-2.00
2017-12-03T07:02:15.941Z,-1.90
2017-12-03T07:04:43.479Z,-1.90
2017-12-03T07:07:10.985Z,-1.90
2017-12-03T07:09:38.511Z,-1.80
2017-12-03T07:12:06.052Z,-1.90
2017-12-03T07:14:33.597Z,-1.90
2017-12-03T07:17:01.151Z,-2.00
2017-12-03T07:19:29.493Z,-2.00
2017-12-03T07:21:57.007Z,-2.00
2017-12-03T07:24:24.553Z,-2.00
2017-12-03T07:26:52.062Z,-1.80
2017-12-03T07:29:19.576Z,-1.90
2017-12-03T07:31:47.062Z,-1.90
2017-12-03T07:34:14.558Z,-1.90
2017-12-03T07:36:42.060Z,-1.90
2017-12-03T07:39:09.583Z,-1.80
2017-12-03T07:41:37.076Z,-1.90
2017-12-03T07:44:04.577Z,-1.90
2017-12-03T07:46:32.089Z,-2.00
2017-12-03T07:48:59.624Z,-1.90
2017-12-03T07:51:27.925Z,-1.90
2017-12-03T07:53:55.478Z,-1.90
2017-12-03T07:56:22.987Z,-2.00
2017-12-03T07:58:50.503Z,-2.00
2017-12-03T08:01:18.009Z,-1.90
2017-12-03T08:03:45.500Z,-2.00
2017-12-03T08:06:13.015Z,-2.10
2017-12-03T08:08:40.556Z,-2.10
2017-12-03T08:11:08.536Z,-2.30
2017-12-03T08:13:38.776Z,-1.70
2017-12-03T08:16:06.429Z,-2.00
2017-12-03T08:18:33.983Z,-2.00
2017-12-03T08:21:01.469Z,-2.00
2017-12-03T08:23:28.999Z,-1.90
2017-12-03T08:25:56.589Z,-1.90
2017-12-03T08:28:24.082Z,-1.90
2017-12-03T08:30:51.687Z,-1.80
2017-12-03T08:33:19.285Z,-1.80
2017-12-03T08:35:46.843Z,-1.80
2017-12-03T08:38:14.407Z,-1.50
2017-12-03T08:40:42.884Z,-1.70
2017-12-03T08:43:11.179Z,-1.60
2017-12-03T08:45:38.692Z,-1.50
2017-12-03T08:48:06.217Z,-1.50
2017-12-03T08:50:34.584Z,-1.60
2017-12-03T08:53:02.836Z,-1.40
2017-12-03T08:55:30.445Z,-1.50
2017-12-03T08:57:57.941Z,-1.50
2017-12-03T09:00:26.217Z,-1.50
2017-12-03T09:02:54.033Z,-1.50
2017-12-03T09:05:21.519Z,-1.40
2017-12-03T09:07:50.725Z,-1.30
2017-12-03T09:10:18.269Z,-1.30
2017-12-03T09:12:45.819Z,-1.40
2017-12-03T09:15:13.336Z,-1.30
2017-12-03T09:17:40.932Z,-1.40
2017-12-03T09:20:08.598Z,-1.50
2017-12-03T09:22:36.328Z,-1.60
2017-12-03T09:25:03.876Z,-1.50
2017-12-03T09:27:31.437Z,-1.50
2017-12-03T09:29:58.969Z,-1.30
2017-12-03T09:32:27.347Z,-1.30
2017-12-03T09:34:55.660Z,-1.30
2017-12-03T09:37:23.209Z,-1.30
2017-12-03T09:39:50.788Z,-1.30
2017-12-03T09:42:18.287Z,-1.40
2017-12-03T09:44:45.792Z,-1.20
2017-12-03T09:47:13.293Z,-1.20
2017-12-03T09:49:40.868Z,-1.10
2017-12-03T09:52:08.412Z,-1.10
2017-12-03T09:54:36.756Z,-1.30
2017-12-03T09:57:04.276Z,-1.40
2017-12-03T09:59:32.595Z,-1.40
2017-12-03T10:02:00.199Z,-1.30
2017-12-03T10:04:27.747Z,-1.20
2017-12-03T10:06:55.305Z,-1.30
2017-12-03T10:09:22.888Z,-1.20
2017-12-03T10:11:50.474Z,-1.10
2017-12-03T10:14:18.016Z,-1.20
2017-12-03T10:16:45.541Z,-1.10
2017-12-03T10:19:13.038Z,-1.00
2017-12-03T10:21:41.321Z,-1.00
2017-12-03T10:24:09.030Z,-0.60
2017-12-03T10:26:36.819Z,-1.10
2017-12-03T10:29:04.477Z,-1.10
2017-12-03T10:31:32.805Z,0.30
2017-12-03T10:34:01.214Z,-1.20
2017-12-03T10:36:28.825Z,-1.70
2017-12-03T10:38:56.486Z,-1.10
2017-12-03T10:41:25.926Z,-1.20
2017-12-03T10:43:53.657Z,-1.20
2017-12-03T10:46:22.079Z,-0.80
2017-12-03T10:48:49.717Z,-1.20
2017-12-03T10:51:17.297Z,-1.20
2017-12-03T10:53:45.812Z,-1.20
2017-12-03T10:56:13.455Z,-0.90
2017-12-03T10:58:41.038Z,-1.00
2017-12-03T11:01:11.703Z,-1.40
2017-12-03T11:03:40.211Z,-1.00
2017-12-03T11:06:07.875Z,-1.00
2017-12-03T11:08:35.863Z,-1.00
2017-12-03T11:11:03.540Z,-0.90
2017-12-03T11:13:31.851Z,-1.10
2017-12-03T11:15:59.410Z,-1.00
2017-12-03T11:18:27.049Z,-1.00
2017-12-03T11:20:54.578Z,-0.90
2017-12-03T11:23:22.889Z,-1.00
2017-12-03T11:25:50.433Z,-0.90
2017-12-03T11:28:17.934Z,-0.90
2017-12-03T11:30:45.594Z,-0.90
2017-12-03T11:33:13.107Z,-1.00
2017-12-03T11:35:40.678Z,-0.80
2017-12-03T11:38:08.139Z,-1.10
2017-12-03T11:40:35.623Z,-1.10
2017-12-03T11:43:03.170Z,-0.90
2017-12-03T11:45:30.787Z,-1.00
2017-12-03T11:47:58.288Z,-1.00
2017-12-03T11:50:25.785Z,-1.00
2017-12-03T11:52:54.412Z,-1.00
2017-12-03T11:55:29.871Z,-1.00
2017-12-03T11:57:57.466Z,-1.00
2017-12-03T12:00:24.968Z,-1.00
2017-12-03T12:02:53.285Z,-1.00
2017-12-03T12:05:20.775Z,-1.10
2017-12-03T12:07:48.338Z,-1.00
2017-12-03T12:10:15.844Z,-1.00
2017-12-03T12:12:44.112Z,-1.00
2017-12-03T12:15:12.402Z,-0.90
2017-12-03T12:17:39.911Z,-1.00
2017-12-03T12:20:07.425Z,-0.90
2017-12-03T12:22:35.324Z,-0.90
2017-12-03T12:25:02.824Z,-0.90
2017-12-03T12:27:30.753Z,-0.80
2017-12-03T12:29:58.236Z,-1.20
2017-12-03T12:32:25.896Z,-0.90
2017-12-03T12:34:53.415Z,-0.90
2017-12-03T12:37:20.909Z,-1.00
2017-12-03T12:39:48.422Z,-1.00
2017-12-03T12:42:15.915Z,-0.90
2017-12-03T12:44:43.417Z,-0.80
2017-12-03T12:47:11.010Z,-0.80
2017-12-03T12:49:38.510Z,-0.80
2017-12-03T12:52:06.817Z,-0.90
2017-12-03T12:54:34.360Z,-0.90
2017-12-03T12:57:02.168Z,-1.00
2017-12-03T12:59:29.696Z,-0.90
2017-12-03T13:01:57.323Z,-1.00
2017-12-03T13:04:25.217Z,-1.00
2017-12-03T13:06:52.781Z,-1.00
2017-12-03T13:09:20.457Z,-1.00
2017-12-03T13:11:48.381Z,-1.00
2017-12-03T13:14:17.303Z,-0.90
2017-12-03T13:16:44.822Z,-1.00
2017-12-03T13:19:12.469Z,-1.10
2017-12-03T13:21:39.969Z,-1.10
2017-12-03T13:24:07.482Z,-1.10
2017-12-03T13:26:35.403Z,-1.10
2017-12-03T13:29:03.036Z,-1.10
2017-12-03T13:31:30.694Z,-1.20
2017-12-03T13:33:58.294Z,-1.10
2017-12-03T13:36:27.255Z,-1.00
2017-12-03T13:38:54.806Z,-1.00
2017-12-03T13:41:22.433Z,-1.00
2017-12-03T13:43:50.069Z,-0.90
2017-12-03T13:46:17.769Z,-0.90
2017-12-03T13:48:45.301Z,-0.90
2017-12-03T13:51:13.000Z,-0.90
2017-12-03T13:53:40.531Z,-0.80
2017-12-03T13:56:08.063Z,-0.80
2017-12-03T13:58:36.788Z,-0.80
2017-12-03T14:03:48.307Z,-0.90
2017-12-03T14:06:15.870Z,-0.80
2017-12-03T14:08:43.483Z,-0.80
2017-12-03T14:11:11.017Z,-0.80
2017-12-03T14:13:38.671Z,-1.30
2017-12-03T14:16:07.151Z,-1.80
2017-12-03T14:18:34.992Z,-0.90
2017-12-03T14:21:02.559Z,-0.80
2017-12-03T14:23:30.143Z,-0.80
2017-12-03T14:25:58.157Z,-1.00
2017-12-03T14:28:26.793Z,-1.00
2017-12-03T14:30:54.404Z,-1.00
2017-12-03T14:33:21.930Z,-1.10
2017-12-03T14:35:50.306Z,-1.00
2017-12-03T14:38:19.770Z,-1.10
2017-12-03T14:40:47.325Z,-1.10
2017-12-03T14:43:14.876Z,-1.20
2017-12-03T14:45:42.379Z,-1.20
2017-12-03T14:48:09.918Z,-1.10
2017-12-03T14:50:37.449Z,-1.10
2017-12-03T14:53:04.964Z,-1.10
2017-12-03T14:55:33.278Z,-1.20
2017-12-03T14:58:00.764Z,-1.20
2017-12-03T15:00:28.265Z,-1.20
2017-12-03T15:02:55.800Z,-1.30
2017-12-03T15:05:24.105Z,-1.30
2017-12-03T15:07:51.910Z,-1.30
2017-12-03T15:10:19.454Z,-1.30
2017-12-03T15:12:46.970Z,-1.30
2017-12-03T15:15:14.533Z,-1.20
2017-12-03T15:17:45.234Z,-1.30
2017-12-03T15:20:12.720Z,-1.10
2017-12-03T15:22:40.995Z,-1.20
2017-12-03T15:25:09.262Z,-1.30
2017-12-03T15:27:37.588Z,-1.20
2017-12-03T15:30:05.127Z,-1.20
2017-12-03T15:32:32.638Z,-1.30
2017-12-03T15:35:00.385Z,-1.20
2017-12-03T15:37:27.871Z,-1.30
2017-12-03T15:39:55.413Z,-1.30
2017-12-03T15:42:22.922Z,-1.30
2017-12-03T15:44:50.426Z,-1.30
2017-12-03T15:47:18.015Z,-1.10
2017-12-03T15:49:46.299Z,-1.30
2017-12-03T15:52:14.566Z,-1.30
2017-12-03T15:54:42.841Z,-1.30
2017-12-03T15:57:11.134Z,-1.30
2017-12-03T15:59:38.928Z,-1.40
2017-12-03T16:02:06.495Z,-1.30
2017-12-03T16:04:34.084Z,-1.30
2017-12-03T16:07:01.581Z,-1.10
2017-12-03T16:09:29.097Z,-1.30
2017-12-03T16:11:56.874Z,-1.30
2017-12-03T16:14:24.367Z,-1.30
2017-12-03T16:16:51.907Z,-1.40
2017-12-03T16:19:19.435Z,-1.40
2017-12-03T16:21:46.922Z,-1.40
2017-12-03T16:24:14.851Z,-1.30
2017-12-03T16:26:42.341Z,-1.90
2017-12-03T16:29:10.747Z,-1.30
2017-12-03T16:31:38.287Z,-1.30
2017-12-03T16:34:05.788Z,-1.20
2017-12-03T16:36:33.301Z,-1.40
2017-12-03T16:39:01.572Z,-1.30
2017-12-03T16:41:29.106Z,-1.30
2017-12-03T16:43:56.616Z,-1.30
2017-12-03T16:46:24.100Z,-1.30
2017-12-03T16:48:51.609Z,-1.10
2017-12-03T16:51:19.115Z,-1.40
2017-12-03T16:53:46.666Z,-1.40
2017-12-03T16:56:14.156Z,-1.30
2017-12-03T16:58:41.649Z,-1.30
2017-12-03T17:01:09.191Z,-1.30
2017-12-03T17:03:37.072Z,-1.30
2017-12-03T17:06:05.371Z,-1.40
2017-12-03T17:08:32.868Z,-1.30
2017-12-03T17:11:00.413Z,-1.30
2017-12-03T17:13:27.928Z,-1.30
2017-12-03T17:15:55.480Z,-1.40
2017-12-03T17:18:23.036Z,-1.30
2017-12-03T17:20:51.378Z,-1.40
2017-12-03T17:23:18.967Z,-1.10
2017-12-03T17:25:46.544Z,-1.90
2017-12-03T17:28:14.312Z,-1.50
2017-12-03T17:30:42.717Z,-1.60
2017-12-03T17:33:10.304Z,-1.60
2017-12-03T17:35:38.767Z,-1.70
2017-12-03T17:38:06.382Z,-1.80
2017-12-03T17:40:33.943Z,-1.30
2017-12-03T17:43:01.566Z,-1.60
2017-12-03T17:45:29.198Z,-1.60
2017-12-03T17:47:56.791Z,-1.60
2017-12-03T17:50:24.479Z,-1.60
2017-12-03T17:52:52.111Z,-1.70
2017-12-03T17:55:19.680Z,-1.40
2017-12-03T17:57:47.234Z,-1.60
2017-12-03T18:00:14.737Z,-1.60
2017-12-03T18:02:43.063Z,-1.60
2017-12-03T18:05:10.592Z,-1.70
2017-12-03T18:07:38.216Z,-1.70
2017-12-03T18:10:06.544Z,-1.70
2017-12-03T18:12:34.609Z,-1.50
2017-12-03T18:15:02.290Z,-1.70
2017-12-03T18:17:29.951Z,-1.60
2017-12-03T18:19:57.587Z,-1.60
2017-12-03T18:22:25.204Z,-1.60
2017-12-03T18:24:53.527Z,-1.70
2017-12-03T18:27:21.139Z,-1.70
2017-12-03T18:29:49.479Z,-1.40
2017-12-03T18:32:17.086Z,-1.50
2017-12-03T18:34:45.421Z,-1.40
2017-12-03T18:37:12.934Z,-1.30
2017-12-03T18:39:40.548Z,-1.50
2017-12-03T18:42:08.179Z,-1.40
2017-12-03T18:44:36.607Z,-2.60
2017-12-03T18:47:04.132Z,-1.30
2017-12-03T18:49:31.661Z,-1.30
2017-12-03T18:51:59.263Z,-1.50
2017-12-03T18:54:27.329Z,-1.70
2017-12-03T18:56:54.951Z,-1.50
2017-12-03T18:59:22.742Z,-1.50
2017-12-03T19:01:51.112Z,-1.40
2017-12-03T19:04:18.727Z,-1.40
2017-12-03T19:06:46.246Z,-1.50
2017-12-03T19:09:13.878Z,-1.50
2017-12-03T19:11:42.180Z,-1.40
2017-12-03T19:14:09.753Z,-1.40
2017-12-03T19:16:37.416Z,-1.40
2017-12-03T19:19:04.983Z,-1.40
2017-12-03T19:21:32.585Z,-1.40
2017-12-03T19:24:00.303Z,-1.40
2017-12-03T19:26:29.484Z,-1.50
2017-12-03T19:28:57.111Z,-1.40
2017-12-03T19:31:24.671Z,-1.40
2017-12-03T19:33:52.391Z,-1.50
2017-12-03T19:36:19.898Z,-1.50
2017-12-03T19:38:48.953Z,0.60
2017-12-03T19:41:17.697Z,-1.50
2017-12-03T19:43:46.118Z,-1.60
2017-12-03T19:46:14.467Z,-1.50
2017-12-03T19:48:42.078Z,-1.40
2017-12-03T19:51:10.391Z,-1.50
2017-12-03T19:53:38.037Z,-1.40
2017-12-03T19:56:06.386Z,-1.40
2017-12-03T19:58:33.974Z,-1.40
2017-12-03T20:01:01.580Z,-1.30
2017-12-03T20:03:29.118Z,-1.60
2017-12-03T20:05:56.808Z,-1.30
2017-12-03T20:08:24.387Z,-1.30
2017-12-03T20:10:52.702Z,-1.40
2017-12-03T20:13:21.070Z,-1.40
2017-12-03T20:15:48.653Z,-1.30
2017-12-03T20:18:16.306Z,-1.40
2017-12-03T20:20:43.921Z,-1.60
2017-12-03T20:23:11.501Z,-1.40
2017-12-03T20:25:39.088Z,-1.50
2017-12-03T20:28:06.686Z,-1.20
2017-12-03T20:30:34.269Z,-1.40
2017-12-03T20:33:01.875Z,-1.30
2017-12-03T20:35:29.409Z,-1.20
2017-12-03T20:37:57.012Z,-1.20
2017-12-03T20:40:24.665Z,-1.20
2017-12-03T20:42:54.248Z,-1.30
2017-12-03T20:45:21.819Z,-1.30
2017-12-03T20:47:50.120Z,-1.30
2017-12-03T20:50:17.807Z,0.70
2017-12-03T20:52:46.161Z,-1.20
2017-12-03T20:55:13.727Z,-1.20
2017-12-03T20:57:42.152Z,-1.10
2017-12-03T21:00:10.835Z,-1.20
2017-12-03T21:02:38.811Z,-1.20
2017-12-03T21:05:07.080Z,-1.20
2017-12-03T21:07:35.515Z,-1.20
2017-12-03T21:10:03.180Z,-1.20
2017-12-03T21:12:30.764Z,-1.20
2017-12-03T21:14:58.411Z,-1.20
2017-12-03T21:17:26.836Z,-1.20
2017-12-03T21:19:54.415Z,-1.20
2017-12-03T21:22:21.963Z,-1.20
2017-12-03T21:24:49.779Z,-1.00
2017-12-03T21:27:18.322Z,-1.20
2017-12-03T21:29:46.023Z,-1.10
2017-12-03T21:32:13.587Z,-1.10
2017-12-03T21:34:41.193Z,-1.10
2017-12-03T21:37:09.609Z,-1.00
2017-12-03T21:39:38.311Z,-1.10
2017-12-03T21:42:06.787Z,-2.00
2017-12-03T21:44:34.434Z,-1.00
2017-12-03T21:47:02.948Z,-1.10
2017-12-03T21:49:30.515Z,-0.60
2017-12-03T21:51:58.188Z,-1.00
2017-12-03T21:54:25.770Z,-1.00
2017-12-03T21:56:53.632Z,-1.10
2017-12-03T21:59:21.286Z,-1.20
2017-12-03T22:01:48.849Z,-1.10
2017-12-03T22:04:16.928Z,-1.00
2017-12-03T22:06:44.600Z,-1.10
2017-12-03T22:09:13.013Z,-1.20
2017-12-03T22:11:40.633Z,-1.00
2017-12-03T22:14:09.050Z,-1.00
2017-12-03T22:16:37.420Z,-1.00
2017-12-03T22:19:05.028Z,-1.00
2017-12-03T22:21:32.559Z,-1.00
2017-12-03T22:24:00.142Z,-0.90
2017-12-03T22:26:28.596Z,-1.00
2017-12-03T22:28:56.148Z,-1.00
2017-12-03T22:31:23.698Z,-0.90
2017-12-03T22:33:51.252Z,-0.70
2017-12-03T22:36:18.796Z,-0.90
2017-12-03T22:38:46.392Z,-0.70
2017-12-03T22:41:14.016Z,-0.90
2017-12-03T22:43:41.645Z,-0.90
2017-12-03T22:46:09.960Z,-0.90
2017-12-03T22:48:37.585Z,-0.90
2017-12-03T22:51:06.106Z,-0.90
2017-12-03T22:53:33.721Z,-1.00
2017-12-03T22:56:02.046Z,-0.90
2017-12-03T22:58:29.648Z,-0.80
2017-12-03T23:00:57.225Z,-0.80
2017-12-03T23:03:31.115Z,-0.80
2017-12-03T23:05:59.278Z,-1.10
2017-12-03T23:08:26.834Z,-0.90
2017-12-03T23:10:54.386Z,-0.90
2017-12-03T23:13:22.042Z,-0.90
2017-12-03T23:15:49.744Z,-0.90
2017-12-03T23:18:17.410Z,-0.90
2017-12-03T23:20:45.035Z,-0.80
2017-12-03T23:23:13.664Z,-0.80
2017-12-03T23:25:41.311Z,-0.80
2017-12-03T23:28:09.650Z,-0.80
2017-12-03T23:30:38.070Z,-0.80
2017-12-03T23:33:06.869Z,-0.80
2017-12-03T23:35:34.381Z,-0.90
2017-12-03T23:38:01.882Z,-0.80
2017-12-03T23:40:29.382Z,-0.80
2017-12-03T23:42:56.872Z,-0.80
2017-12-03T23:45:24.418Z,-0.70
2017-12-03T23:47:51.916Z,-0.70
2017-12-03T23:50:19.405Z,-0.70
2017-12-03T23:52:46.900Z,-0.70
2017-12-03T23:55:14.409Z,-0.80
2017-12-03T23:57:41.912Z,-0.70
